createdAt,value
2022-08-26T00:01:44.925Z,30.23
2022-08-26T00:04:12.772Z,33.75
2022-08-26T00:06:42.714Z,29.23
2022-08-26T00:09:15.888Z,33.20
2022-08-26T00:11:44.304Z,35.88
2022-08-26T00:14:13.135Z,33.80
2022-08-26T00:16:40.812Z,33.67
2022-08-26T00:19:08.704Z,37.38
2022-08-26T00:21:37.625Z,36.40
2022-08-26T00:24:05.961Z,39.78
2022-08-26T00:26:35.024Z,38.47
2022-08-26T00:29:02.158Z,37.85
2022-08-26T00:31:31.223Z,35.60
2022-08-26T00:33:58.689Z,41.08
2022-08-26T00:36:29.809Z,41.08
2022-08-26T00:38:58.177Z,39.88
2022-08-26T00:41:25.248Z,43.70
2022-08-26T00:43:53.297Z,42.13
2022-08-26T00:46:25.717Z,40.60
2022-08-26T00:48:58.685Z,41.30
2022-08-26T00:51:29.644Z,43.55
2022-08-26T00:54:10.869Z,46.03
2022-08-26T00:56:48.629Z,46.90
2022-08-26T00:59:18.105Z,45.28
2022-08-26T01:01:46.278Z,51.45
2022-08-26T01:04:19.630Z,48.33
2022-08-26T01:06:49.452Z,46.50
2022-08-26T01:09:17.668Z,48.40
2022-08-26T01:11:46.070Z,51.28
2022-08-26T01:14:13.739Z,53.67
2022-08-26T01:16:42.315Z,52.25
2022-08-26T01:19:52.307Z,50.92
2022-08-26T01:22:19.354Z,45.78
2022-08-26T01:24:49.524Z,54.83
2022-08-26T01:27:20.361Z,59.85
2022-08-26T01:29:49.348Z,55.03
2022-08-26T01:32:20.829Z,52.80
2022-08-26T01:34:49.045Z,52.83
2022-08-26T01:37:20.637Z,53.58
2022-08-26T01:39:52.006Z,53.42
2022-08-26T01:42:21.340Z,58.33
2022-08-26T01:44:55.951Z,55.53
2022-08-26T01:47:26.066Z,55.92
2022-08-26T01:49:56.055Z,54.95
2022-08-26T01:52:27.977Z,53.67
2022-08-26T01:54:57.242Z,55.70
2022-08-26T01:57:25.560Z,55.63
2022-08-26T01:59:55.585Z,57.80
2022-08-26T02:02:24.536Z,55.50
2022-08-26T02:04:59.727Z,53.92
2022-08-26T02:07:27.919Z,55.92
2022-08-26T02:09:55.289Z,53.20
2022-08-26T02:12:22.508Z,55.58
2022-08-26T02:14:55.337Z,57.60
2022-08-26T02:17:29.449Z,63.22
2022-08-26T02:19:58.133Z,60.42
2022-08-26T02:22:25.124Z,58.60
2022-08-26T02:24:59.154Z,58.03
2022-08-26T02:27:32.913Z,57.05
2022-08-26T02:30:07.253Z,58.53
2022-08-26T02:32:34.171Z,60.90
2022-08-26T02:35:02.238Z,59.50
2022-08-26T02:37:31.335Z,58.92
2022-08-26T02:39:58.982Z,61.83
2022-08-26T02:42:25.993Z,57.25
2022-08-26T02:44:53.806Z,60.00
2022-08-26T02:47:20.722Z,54.53
2022-08-26T02:49:52.278Z,59.92
2022-08-26T02:52:20.488Z,64.40
2022-08-26T02:54:48.095Z,57.38
2022-08-26T02:57:17.255Z,67.60
2022-08-26T02:59:44.320Z,59.67
2022-08-26T03:02:12.358Z,57.28
2022-08-26T03:04:40.895Z,64.60
2022-08-26T03:07:25.288Z,61.40
2022-08-26T03:09:53.167Z,61.47
2022-08-26T03:12:20.479Z,62.78
2022-08-26T03:14:48.021Z,54.45
2022-08-26T03:17:16.092Z,59.25
2022-08-26T03:19:43.030Z,55.70
2022-08-26T03:22:11.094Z,52.92
2022-08-26T03:24:38.006Z,54.35
2022-08-26T03:27:07.239Z,55.55
2022-08-26T03:29:53.006Z,54.15
2022-08-26T03:32:20.856Z,54.53
2022-08-26T03:34:48.170Z,57.88
2022-08-26T03:37:15.236Z,56.88
2022-08-26T03:39:42.223Z,57.70
2022-08-26T03:42:09.384Z,55.08
2022-08-26T03:44:41.945Z,53.90
2022-08-26T03:47:09.526Z,58.60
2022-08-26T03:49:36.614Z,56.47
2022-08-26T03:52:04.952Z,54.50
2022-08-26T03:54:33.521Z,58.08
2022-08-26T03:57:00.677Z,58.35
2022-08-26T03:59:27.931Z,64.18
2022-08-26T04:01:55.567Z,61.80
2022-08-26T04:04:24.535Z,63.03
2022-08-26T04:06:58.505Z,63.08
2022-08-26T04:09:26.710Z,64.57
2022-08-26T04:11:54.623Z,61.15
2022-08-26T04:14:24.333Z,63.42
2022-08-26T04:16:52.581Z,64.55
2022-08-26T04:19:23.905Z,69.43
2022-08-26T04:21:55.595Z,63.47
2022-08-26T04:24:26.465Z,65.32
2022-08-26T04:26:56.473Z,67.53
2022-08-26T04:29:26.742Z,66.13
2022-08-26T04:31:55.978Z,59.50
2022-08-26T04:34:28.355Z,62.55
2022-08-26T04:36:56.741Z,64.72
2022-08-26T04:39:24.511Z,64.95
2022-08-26T04:41:55.222Z,65.05
2022-08-26T04:44:22.802Z,63.10
2022-08-26T04:46:50.945Z,60.20
2022-08-26T04:49:18.199Z,60.90
2022-08-26T04:51:45.435Z,60.78
2022-08-26T04:54:12.465Z,58.65
2022-08-26T04:56:42.014Z,60.92
2022-08-26T04:59:17.187Z,57.58
2022-08-26T05:01:51.658Z,57.88
2022-08-26T05:04:20.590Z,56.75
2022-08-26T05:06:48.748Z,57.13
2022-08-26T05:09:16.595Z,53.38
2022-08-26T05:11:43.677Z,53.28
2022-08-26T05:14:10.599Z,52.90
2022-08-26T05:16:40.308Z,56.55
2022-08-26T05:19:08.429Z,49.63
2022-08-26T05:21:36.676Z,56.85
2022-08-26T05:24:04.776Z,50.95
2022-08-26T05:26:32.321Z,55.15
2022-08-26T05:28:59.293Z,54.75
2022-08-26T05:31:31.201Z,50.03
2022-08-26T05:33:58.987Z,51.53
2022-08-26T05:36:29.118Z,53.50
2022-08-26T05:38:57.901Z,49.80
2022-08-26T05:41:35.394Z,49.45
2022-08-26T05:44:06.093Z,48.78
2022-08-26T05:46:34.634Z,48.20
2022-08-26T05:49:02.703Z,41.13
2022-08-26T05:51:30.411Z,38.08
2022-08-26T05:53:58.827Z,41.25
2022-08-26T05:56:27.806Z,39.45
2022-08-26T05:58:58.337Z,35.80
2022-08-26T06:01:28.024Z,37.03
2022-08-26T06:04:01.805Z,33.55
2022-08-26T06:06:34.747Z,33.65
2022-08-26T06:09:04.542Z,36.90
2022-08-26T06:11:33.032Z,29.02
2022-08-26T06:14:03.866Z,25.17
2022-08-26T06:16:34.855Z,27.85
2022-08-26T06:19:10.227Z,32.42
2022-08-26T06:21:40.257Z,27.88
2022-08-26T06:24:28.782Z,30.10
2022-08-26T06:26:58.520Z,28.35
2022-08-26T06:29:26.543Z,28.08
2022-08-26T06:31:56.277Z,28.48
2022-08-26T06:34:26.740Z,31.15
2022-08-26T06:36:59.890Z,23.30
2022-08-26T06:39:30.780Z,21.10
2022-08-26T06:42:02.652Z,27.98
2022-08-26T06:44:34.424Z,26.23
2022-08-26T06:47:01.690Z,24.83
2022-08-26T06:49:28.737Z,22.52
2022-08-26T06:51:59.611Z,22.13
2022-08-26T06:54:31.730Z,18.90
2022-08-26T06:56:59.198Z,19.27
2022-08-26T06:59:26.359Z,16.08
2022-08-26T07:01:54.918Z,15.73
2022-08-26T07:04:23.316Z,15.60
2022-08-26T07:06:53.572Z,16.10
2022-08-26T07:09:27.605Z,19.27
2022-08-26T07:11:56.357Z,13.15
2022-08-26T07:14:23.942Z,11.63
2022-08-26T07:16:51.557Z,17.63
2022-08-26T07:19:28.511Z,14.95
2022-08-26T07:22:01.990Z,12.43
2022-08-26T07:24:29.657Z,15.40
2022-08-26T07:27:02.863Z,16.25
2022-08-26T07:29:31.001Z,11.70
2022-08-26T07:31:58.468Z,22.38
2022-08-26T07:34:26.196Z,14.90
2022-08-26T07:36:53.970Z,14.15
2022-08-26T07:39:23.676Z,14.43
2022-08-26T07:41:52.868Z,15.55
2022-08-26T07:44:20.170Z,13.80
2022-08-26T07:46:53.033Z,10.82
2022-08-26T07:49:22.984Z,12.65
2022-08-26T07:51:51.270Z,14.07
2022-08-26T07:54:18.820Z,14.98
2022-08-26T07:56:46.759Z,16.92
2022-08-26T07:59:15.156Z,12.57
2022-08-26T08:01:44.764Z,11.80
2022-08-26T08:04:17.848Z,11.65
2022-08-26T08:06:45.892Z,14.15
2022-08-26T08:09:16.147Z,12.27
2022-08-26T08:11:45.067Z,12.60
2022-08-26T08:14:13.459Z,10.05
2022-08-26T08:16:46.090Z,14.38
2022-08-26T08:19:15.477Z,10.63
2022-08-26T08:21:44.137Z,9.13
2022-08-26T08:24:12.142Z,9.20
2022-08-26T08:26:39.381Z,11.73
2022-08-26T08:29:09.698Z,9.88
2022-08-26T08:34:26.096Z,9.32
2022-08-26T08:36:53.834Z,10.77
2022-08-26T08:39:22.430Z,12.00
2022-08-26T08:41:58.651Z,10.80
2022-08-26T08:47:13.220Z,10.65
2022-08-26T08:49:40.443Z,12.05
2022-08-26T08:52:18.956Z,9.93
2022-08-26T08:54:47.139Z,9.82
2022-08-26T08:57:31.799Z,10.85
2022-08-26T09:00:07.451Z,11.38
2022-08-26T09:03:01.768Z,8.80
2022-08-26T09:05:34.631Z,9.27
2022-08-26T09:08:04.917Z,9.50
2022-08-26T09:10:40.754Z,9.25
2022-08-26T09:16:19.189Z,9.02
2022-08-26T09:18:59.778Z,8.90
2022-08-26T09:21:29.175Z,10.07
2022-08-26T09:23:57.781Z,10.50
2022-08-26T09:26:47.288Z,10.35
2022-08-26T09:29:25.670Z,12.65
2022-08-26T09:32:13.682Z,8.90
2022-08-26T09:35:01.493Z,9.18
2022-08-26T09:37:42.824Z,10.02
2022-08-26T09:40:18.070Z,10.27
2022-08-26T09:42:45.903Z,12.53
2022-08-26T09:45:15.700Z,9.55
2022-08-26T09:47:47.243Z,9.73
2022-08-26T09:50:53.289Z,8.57
2022-08-26T09:53:32.309Z,9.48
2022-08-26T09:56:18.337Z,9.45
2022-08-26T09:58:48.383Z,10.82
2022-08-26T10:01:32.279Z,11.35
2022-08-26T10:04:08.025Z,10.75
2022-08-26T10:06:40.806Z,9.13
2022-08-26T10:09:12.518Z,9.98
2022-08-26T10:11:48.227Z,9.15
2022-08-26T10:14:25.474Z,10.18
2022-08-26T10:17:01.458Z,10.63
2022-08-26T10:19:55.766Z,10.02
2022-08-26T10:22:37.504Z,10.20
2022-08-26T10:25:10.108Z,10.02
2022-08-26T10:27:52.728Z,11.73
2022-08-26T10:30:24.354Z,9.35
2022-08-26T10:33:10.759Z,9.77
2022-08-26T10:35:45.062Z,12.70
2022-08-26T10:38:15.990Z,11.35
2022-08-26T10:40:59.235Z,10.25
2022-08-26T10:43:40.997Z,9.07
2022-08-26T10:46:24.007Z,12.40
2022-08-26T10:49:03.323Z,10.10
2022-08-26T10:51:42.215Z,9.07
2022-08-26T10:54:27.808Z,11.02
2022-08-26T10:57:00.404Z,10.45
2022-08-26T10:59:52.005Z,8.43
2022-08-26T11:02:47.170Z,8.70
2022-08-26T11:05:23.557Z,10.13
2022-08-26T11:08:14.447Z,9.68
2022-08-26T11:10:55.045Z,8.98
2022-08-26T11:13:59.415Z,8.65
2022-08-26T11:16:43.491Z,10.38
2022-08-26T11:19:57.121Z,10.45
2022-08-26T11:22:25.498Z,9.63
2022-08-26T11:24:55.686Z,9.23
2022-08-26T11:27:28.747Z,10.68
2022-08-26T11:30:02.826Z,10.38
2022-08-26T11:32:42.037Z,9.23
2022-08-26T11:35:29.233Z,12.98
2022-08-26T11:38:12.695Z,9.45
2022-08-26T11:40:41.134Z,9.43
2022-08-26T11:43:21.318Z,10.25
2022-08-26T11:46:00.938Z,8.65
2022-08-26T11:48:40.624Z,7.60
2022-08-26T11:51:10.180Z,8.57
2022-08-26T11:53:42.962Z,9.55
2022-08-26T11:56:16.940Z,8.50
2022-08-26T11:58:46.871Z,9.38
2022-08-26T12:01:26.631Z,10.00
2022-08-26T12:03:56.905Z,9.23
2022-08-26T12:06:28.149Z,8.85
2022-08-26T12:09:00.592Z,7.60
2022-08-26T12:11:31.250Z,8.35
2022-08-26T12:14:02.947Z,9.40
2022-08-26T12:16:37.123Z,8.70
2022-08-26T12:19:28.978Z,9.37
2022-08-26T12:22:23.454Z,7.85
2022-08-26T12:25:00.747Z,8.32
2022-08-26T12:27:36.931Z,6.85
2022-08-26T12:30:09.668Z,7.13
2022-08-26T12:32:57.593Z,9.50
2022-08-26T12:35:26.935Z,8.07
2022-08-26T12:37:54.466Z,7.97
2022-08-26T12:40:41.753Z,13.27
2022-08-26T12:43:10.906Z,8.30
2022-08-26T12:46:00.673Z,9.98
2022-08-26T12:48:32.046Z,8.57
2022-08-26T12:51:00.857Z,8.77
2022-08-26T12:53:33.225Z,9.75
2022-08-26T12:56:06.124Z,9.30
2022-08-26T12:58:38.751Z,9.02
2022-08-26T13:01:06.646Z,8.35
2022-08-26T13:03:35.216Z,9.60
2022-08-26T13:06:16.765Z,9.38
2022-08-26T13:08:52.524Z,9.40
2022-08-26T13:11:28.451Z,8.48
2022-08-26T13:14:02.607Z,8.85
2022-08-26T13:16:35.318Z,10.90
2022-08-26T13:19:12.148Z,8.30
2022-08-26T13:21:54.072Z,7.57
2022-08-26T13:24:36.771Z,8.32
2022-08-26T13:27:06.412Z,8.45
2022-08-26T13:29:33.835Z,9.25
2022-08-26T13:32:01.316Z,8.10
2022-08-26T13:34:30.187Z,8.07
2022-08-26T13:36:58.041Z,9.23
2022-08-26T13:39:27.625Z,10.30
2022-08-26T13:41:54.808Z,11.40
2022-08-26T13:44:22.085Z,8.07
2022-08-26T13:46:49.181Z,8.45
2022-08-26T13:49:16.201Z,8.30
2022-08-26T13:51:43.193Z,9.63
2022-08-26T13:54:10.237Z,8.05
2022-08-26T13:56:37.665Z,8.65
2022-08-26T13:59:04.885Z,8.15
2022-08-26T14:01:33.835Z,9.75
2022-08-26T14:04:00.798Z,12.43
2022-08-26T14:06:27.750Z,9.93
2022-08-26T14:08:54.804Z,8.52
2022-08-26T14:11:23.235Z,8.57
2022-08-26T14:13:50.779Z,7.95
2022-08-26T14:16:27.427Z,8.55
2022-08-26T14:18:55.104Z,11.50
2022-08-26T14:21:22.578Z,9.98
2022-08-26T14:23:49.614Z,11.43
2022-08-26T14:26:28.082Z,9.85
2022-08-26T14:29:00.671Z,8.27
2022-08-26T14:31:29.586Z,10.80
2022-08-26T14:34:03.893Z,8.20
2022-08-26T14:36:32.497Z,10.43
2022-08-26T14:39:09.217Z,8.20
2022-08-26T14:41:43.305Z,9.20
2022-08-26T14:44:15.192Z,9.50
2022-08-26T14:46:48.720Z,12.63
2022-08-26T14:49:18.538Z,11.55
2022-08-26T14:51:46.205Z,10.00
2022-08-26T14:54:14.679Z,10.98
2022-08-26T14:56:46.958Z,10.00
2022-08-26T14:59:17.581Z,10.68
2022-08-26T15:01:45.570Z,12.23
2022-08-26T15:04:13.583Z,11.60
2022-08-26T15:06:40.928Z,11.48
2022-08-26T15:09:08.553Z,11.90
2022-08-26T15:11:35.718Z,10.90
2022-08-26T15:14:03.183Z,11.70
2022-08-26T15:16:30.431Z,13.38
2022-08-26T15:18:57.490Z,13.82
2022-08-26T15:21:26.759Z,11.02
2022-08-26T15:23:54.608Z,11.25
2022-08-26T15:26:22.434Z,12.15
2022-08-26T15:28:50.391Z,14.50
2022-08-26T15:31:17.883Z,11.35
2022-08-26T15:33:45.034Z,10.77
2022-08-26T15:36:12.071Z,11.88
2022-08-26T15:38:42.503Z,12.15
2022-08-26T15:41:10.433Z,10.93
2022-08-26T15:43:38.073Z,10.93
2022-08-26T15:46:10.460Z,11.02
2022-08-26T15:48:38.552Z,12.88
2022-08-26T15:51:07.151Z,11.00
2022-08-26T15:53:35.521Z,13.02
2022-08-26T15:56:02.754Z,10.90
2022-08-26T15:58:30.492Z,10.73
2022-08-26T16:00:58.035Z,12.18
2022-08-26T16:03:25.213Z,11.18
2022-08-26T16:05:52.465Z,12.95
2022-08-26T16:08:19.781Z,14.93
2022-08-26T16:10:50.697Z,10.82
2022-08-26T16:13:19.665Z,11.85
2022-08-26T16:15:48.407Z,10.13
2022-08-26T16:18:16.487Z,11.50
2022-08-26T16:21:01.550Z,11.82
2022-08-26T16:23:39.772Z,12.43
2022-08-26T16:26:12.573Z,13.18
2022-08-26T16:28:39.874Z,11.80
2022-08-26T16:31:07.637Z,10.15
2022-08-26T16:33:34.599Z,14.43
2022-08-26T16:36:01.820Z,12.60
2022-08-26T16:38:28.855Z,14.43
2022-08-26T16:40:56.114Z,14.98
2022-08-26T16:43:23.147Z,11.27
2022-08-26T16:45:50.207Z,13.02
2022-08-26T16:48:18.157Z,12.88
2022-08-26T16:50:45.319Z,11.18
2022-08-26T16:55:45.979Z,13.02
2022-08-26T16:58:13.295Z,12.88
2022-08-26T17:00:40.605Z,15.20
2022-08-26T17:03:07.929Z,11.38
2022-08-26T17:05:36.345Z,16.58
2022-08-26T17:08:04.868Z,17.05
2022-08-26T17:10:32.335Z,12.20
2022-08-26T17:12:59.753Z,13.20
2022-08-26T17:15:27.229Z,13.50
2022-08-26T17:17:54.802Z,13.35
2022-08-26T17:20:23.714Z,12.25
2022-08-26T17:22:53.074Z,13.90
2022-08-26T17:25:28.533Z,15.98
2022-08-26T17:30:25.897Z,16.40
2022-08-26T17:32:54.787Z,16.60
2022-08-26T17:35:22.996Z,15.90
2022-08-26T17:37:50.102Z,16.35
2022-08-26T17:40:21.727Z,16.65
2022-08-26T17:42:48.959Z,18.58
2022-08-26T17:45:16.843Z,14.98
2022-08-26T17:47:44.848Z,14.05
2022-08-26T17:50:15.191Z,17.90
2022-08-26T17:52:44.237Z,15.90
2022-08-26T17:55:13.295Z,15.63
2022-08-26T17:57:40.646Z,16.77
2022-08-26T18:00:12.802Z,15.57
2022-08-26T18:02:41.088Z,19.92
2022-08-26T18:05:09.818Z,20.55
2022-08-26T18:07:43.877Z,16.30
2022-08-26T18:10:15.491Z,14.73
2022-08-26T18:12:42.981Z,13.18
2022-08-26T18:15:11.552Z,18.15
2022-08-26T18:17:39.604Z,17.50
2022-08-26T18:20:09.500Z,15.80
2022-08-26T18:22:36.699Z,19.48
2022-08-26T18:25:05.124Z,17.83
2022-08-26T18:27:32.572Z,15.00
2022-08-26T18:30:00.326Z,13.82
2022-08-26T18:32:27.506Z,23.48
2022-08-26T18:34:54.701Z,17.67
2022-08-26T18:37:21.812Z,17.05
2022-08-26T18:39:49.150Z,14.55
2022-08-26T18:42:16.326Z,16.92
2022-08-26T18:44:43.415Z,16.30
2022-08-26T18:47:11.210Z,17.75
2022-08-26T18:56:37.960Z,19.08
2022-08-26T18:59:28.465Z,16.20
2022-08-26T19:01:58.263Z,18.80
2022-08-26T19:04:26.134Z,19.60
2022-08-26T19:10:17.827Z,20.48
2022-08-26T19:12:46.106Z,21.80
2022-08-26T19:15:19.225Z,17.20
2022-08-26T19:17:46.344Z,22.00
2022-08-26T19:20:13.392Z,24.10
2022-08-26T19:22:40.506Z,19.67
2022-08-26T19:25:08.011Z,23.83
2022-08-26T19:27:35.070Z,23.25
2022-08-26T19:30:02.215Z,22.20
2022-08-26T19:32:30.811Z,23.13
2022-08-26T19:34:57.828Z,20.02
2022-08-26T19:37:24.803Z,24.83
2022-08-26T19:39:51.987Z,24.73
2022-08-26T19:42:19.223Z,29.13
2022-08-26T19:45:04.765Z,20.88
2022-08-26T19:47:32.046Z,21.30
2022-08-26T19:49:59.095Z,21.83
2022-08-26T19:52:29.942Z,21.42
2022-08-26T19:54:58.037Z,26.17
2022-08-26T19:57:25.219Z,26.00
2022-08-26T19:59:52.347Z,22.33
2022-08-26T20:02:19.886Z,31.55
2022-08-26T20:04:47.414Z,28.10
2022-08-26T20:07:18.578Z,28.98
2022-08-26T20:09:47.957Z,33.60
2022-08-26T20:12:16.480Z,30.08
2022-08-26T20:14:43.595Z,36.03
2022-08-26T20:17:11.431Z,37.60
2022-08-26T20:19:56.896Z,45.22
2022-08-26T20:22:24.779Z,37.80
2022-08-26T20:24:52.825Z,34.28
2022-08-26T20:27:22.324Z,39.50
2022-08-26T20:29:49.357Z,43.65
2022-08-26T20:32:18.519Z,43.03
2022-08-26T20:34:45.678Z,42.35
2022-08-26T20:37:13.165Z,53.40
2022-08-26T20:39:40.386Z,50.15
2022-08-26T20:42:19.806Z,44.25
2022-08-26T20:44:54.735Z,51.22
2022-08-26T20:47:23.288Z,47.33
2022-08-26T20:49:52.457Z,46.38
2022-08-26T20:52:20.436Z,39.95
2022-08-26T20:54:47.397Z,37.72
2022-08-26T20:57:14.856Z,31.52
2022-08-26T20:59:43.109Z,30.67
2022-08-26T21:02:10.147Z,36.83
2022-08-26T21:04:37.242Z,30.50
2022-08-26T21:07:04.292Z,30.00
2022-08-26T21:09:33.062Z,30.70
2022-08-26T21:12:00.084Z,25.35
2022-08-26T21:14:27.216Z,26.30
2022-08-26T21:16:54.584Z,27.65
2022-08-26T21:19:22.076Z,21.77
2022-08-26T21:21:49.775Z,24.13
2022-08-26T21:24:17.315Z,23.08
2022-08-26T21:26:44.802Z,20.52
2022-08-26T21:29:13.674Z,24.73
2022-08-26T21:31:46.040Z,21.45
2022-08-26T21:34:18.498Z,21.80
2022-08-26T21:36:48.767Z,21.63
2022-08-26T21:39:16.548Z,26.63
2022-08-26T21:41:44.422Z,18.90
2022-08-26T21:44:12.537Z,21.50
2022-08-26T21:46:39.877Z,20.33
2022-08-26T21:49:10.868Z,22.67
2022-08-26T21:51:41.508Z,24.35
2022-08-26T21:54:11.282Z,28.35
2022-08-26T21:56:46.250Z,19.92
2022-08-26T21:59:15.674Z,21.42
2022-08-26T22:01:43.033Z,24.50
2022-08-26T22:04:18.886Z,24.25
2022-08-26T22:06:51.463Z,24.17
2022-08-26T22:09:26.810Z,25.08
2022-08-26T22:11:54.251Z,23.58
2022-08-26T22:14:22.402Z,23.83
2022-08-26T22:16:50.537Z,23.65
2022-08-26T22:19:20.141Z,22.00
2022-08-26T22:21:50.201Z,23.83
2022-08-26T22:24:22.590Z,30.00
2022-08-26T22:26:50.102Z,26.88
2022-08-26T22:29:17.549Z,22.40
2022-08-26T22:31:44.980Z,21.45
2022-08-26T22:34:17.142Z,17.88
2022-08-26T22:36:46.699Z,27.17
2022-08-26T22:39:16.096Z,23.10
2022-08-26T22:41:44.367Z,23.27
2022-08-26T22:44:12.347Z,21.35
2022-08-26T22:46:40.505Z,21.23
2022-08-26T22:49:10.210Z,27.30
2022-08-26T22:51:37.291Z,23.70
2022-08-26T22:54:05.473Z,23.60
2022-08-26T22:56:32.678Z,21.17
2022-08-26T22:58:59.677Z,20.65
2022-08-26T23:01:27.054Z,25.00
2022-08-26T23:03:54.255Z,25.05
2022-08-26T23:06:21.342Z,23.10
2022-08-26T23:08:48.374Z,23.45
2022-08-26T23:11:15.652Z,27.27
2022-08-26T23:13:42.751Z,29.08
2022-08-26T23:16:11.980Z,24.92
2022-08-26T23:18:41.047Z,23.88
2022-08-26T23:21:08.925Z,24.02
2022-08-26T23:23:36.768Z,23.33
2022-08-26T23:26:06.250Z,24.27
2022-08-26T23:28:35.023Z,23.33
2022-08-26T23:31:02.147Z,24.65
2022-08-26T23:33:49.310Z,24.13
2022-08-26T23:36:18.457Z,27.05
2022-08-26T23:38:52.601Z,23.33
2022-08-26T23:41:22.767Z,21.55
2022-08-26T23:43:50.720Z,21.10
2022-08-26T23:46:18.899Z,25.42
2022-08-26T23:48:47.169Z,21.20
2022-08-26T23:51:32.886Z,28.10
2022-08-26T23:54:00.271Z,23.92
2022-08-26T23:56:27.434Z,24.25
2022-08-26T23:58:55.025Z,25.65
